sensor_id;sensor_type;location;lat;lon;timestamp;P1;durP1;ratioP1;P2;durP2;ratioP2
74624;SDS011;63131;52.298;8.056;2023-02-11T00:00:02;44.15;;;20.33;;
74624;SDS011;63131;52.298;8.056;2023-02-11T00:02:29;39.78;;;19.35;;
74624;SDS011;63131;52.298;8.056;2023-02-11T00:04:55;39.25;;;19.55;;
74624;SDS011;63131;52.298;8.056;2023-02-11T00:07:21;41.20;;;18.85;;
74624;SDS011;63131;52.298;8.056;2023-02-11T00:09:46;38.15;;;19.58;;
74624;SDS011;63131;52.298;8.056;2023-02-11T00:12:11;38.92;;;18.60;;
74624;SDS011;63131;52.298;8.056;2023-02-11T00:14:37;46.55;;;21.10;;
74624;SDS011;63131;52.298;8.056;2023-02-11T00:17:02;42.08;;;20.35;;
74624;SDS011;63131;52.298;8.056;2023-02-11T00:22:23;44.00;;;21.23;;
74624;SDS011;63131;52.298;8.056;2023-02-11T00:24:49;34.25;;;17.27;;
74624;SDS011;63131;52.298;8.056;2023-02-11T00:27:14;44.13;;;18.95;;
74624;SDS011;63131;52.298;8.056;2023-02-11T00:29:39;41.05;;;18.67;;
74624;SDS011;63131;52.298;8.056;2023-02-11T00:32:05;38.35;;;19.33;;
74624;SDS011;63131;52.298;8.056;2023-02-11T00:34:33;43.83;;;19.48;;
74624;SDS011;63131;52.298;8.056;2023-02-11T00:36:59;39.38;;;18.17;;
74624;SDS011;63131;52.298;8.056;2023-02-11T00:39:24;40.03;;;18.52;;
74624;SDS011;63131;52.298;8.056;2023-02-11T00:41:50;38.40;;;18.70;;
74624;SDS011;63131;52.298;8.056;2023-02-11T00:44:15;39.63;;;19.15;;
74624;SDS011;63131;52.298;8.056;2023-02-11T00:46:40;44.65;;;19.35;;
74624;SDS011;63131;52.298;8.056;2023-02-11T00:49:06;42.47;;;19.77;;
74624;SDS011;63131;52.298;8.056;2023-02-11T00:51:31;37.53;;;19.10;;
74624;SDS011;63131;52.298;8.056;2023-02-11T00:53:56;42.42;;;19.95;;
74624;SDS011;63131;52.298;8.056;2023-02-11T00:56:22;43.65;;;18.60;;
74624;SDS011;63131;52.298;8.056;2023-02-11T00:58:47;37.70;;;19.15;;
74624;SDS011;63131;52.298;8.056;2023-02-11T01:01:13;37.28;;;18.35;;
74624;SDS011;63131;52.298;8.056;2023-02-11T01:03:38;37.47;;;18.85;;
74624;SDS011;63131;52.298;8.056;2023-02-11T01:06:05;41.25;;;20.33;;
74624;SDS011;63131;52.298;8.056;2023-02-11T01:08:31;40.95;;;19.52;;
74624;SDS011;63131;52.298;8.056;2023-02-11T01:10:58;41.67;;;19.98;;
74624;SDS011;63131;52.298;8.056;2023-02-11T01:13:28;36.40;;;18.58;;
74624;SDS011;63131;52.298;8.056;2023-02-11T01:15:55;38.45;;;18.77;;
74624;SDS011;63131;52.298;8.056;2023-02-11T01:18:20;37.55;;;16.98;;
74624;SDS011;63131;52.298;8.056;2023-02-11T01:23:12;35.67;;;17.37;;
74624;SDS011;63131;52.298;8.056;2023-02-11T01:25:37;33.00;;;16.95;;
74624;SDS011;63131;52.298;8.056;2023-02-11T01:28:02;37.78;;;19.17;;
74624;SDS011;63131;52.298;8.056;2023-02-11T01:30:28;37.13;;;19.00;;
74624;SDS011;63131;52.298;8.056;2023-02-11T01:32:53;35.78;;;17.60;;
74624;SDS011;63131;52.298;8.056;2023-02-11T01:35:19;37.30;;;19.75;;
74624;SDS011;63131;52.298;8.056;2023-02-11T01:37:44;35.95;;;18.92;;
74624;SDS011;63131;52.298;8.056;2023-02-11T01:40:14;36.30;;;17.30;;
74624;SDS011;63131;52.298;8.056;2023-02-11T01:42:41;38.72;;;18.20;;
74624;SDS011;63131;52.298;8.056;2023-02-11T01:48:23;39.45;;;19.33;;
74624;SDS011;63131;52.298;8.056;2023-02-11T01:50:51;33.95;;;17.35;;
74624;SDS011;63131;52.298;8.056;2023-02-11T01:53:19;36.08;;;19.77;;
74624;SDS011;63131;52.298;8.056;2023-02-11T01:56:03;39.08;;;18.60;;
74624;SDS011;63131;52.298;8.056;2023-02-11T01:58:48;35.28;;;18.90;;
74624;SDS011;63131;52.298;8.056;2023-02-11T02:03:41;39.28;;;18.33;;
74624;SDS011;63131;52.298;8.056;2023-02-11T02:06:13;37.55;;;16.80;;
74624;SDS011;63131;52.298;8.056;2023-02-11T02:08:52;38.80;;;18.85;;
74624;SDS011;63131;52.298;8.056;2023-02-11T02:13:46;41.60;;;19.67;;
74624;SDS011;63131;52.298;8.056;2023-02-11T02:18:56;35.00;;;16.95;;
74624;SDS011;63131;52.298;8.056;2023-02-11T02:38:00;34.88;;;17.73;;
74624;SDS011;63131;52.298;8.056;2023-02-11T02:40:31;38.47;;;18.15;;
74624;SDS011;63131;52.298;8.056;2023-02-11T02:42:59;38.75;;;18.60;;
74624;SDS011;63131;52.298;8.056;2023-02-11T02:50:23;35.10;;;16.63;;
74624;SDS011;63131;52.298;8.056;2023-02-11T02:55:24;37.80;;;18.87;;
74624;SDS011;63131;52.298;8.056;2023-02-11T03:03:54;31.48;;;16.08;;
74624;SDS011;63131;52.298;8.056;2023-02-11T03:06:33;36.80;;;16.05;;
74624;SDS011;63131;52.298;8.056;2023-02-11T03:12:15;35.03;;;16.50;;
74624;SDS011;63131;52.298;8.056;2023-02-11T03:14:41;37.30;;;16.90;;
74624;SDS011;63131;52.298;8.056;2023-02-11T03:17:08;34.83;;;16.17;;
74624;SDS011;63131;52.298;8.056;2023-02-11T03:22:01;26.48;;;14.40;;
74624;SDS011;63131;52.298;8.056;2023-02-11T03:24:31;31.10;;;14.23;;
74624;SDS011;63131;52.298;8.056;2023-02-11T03:27:00;33.58;;;16.00;;
74624;SDS011;63131;52.298;8.056;2023-02-11T03:29:35;29.05;;;14.77;;
74624;SDS011;63131;52.298;8.056;2023-02-11T03:32:16;38.15;;;16.27;;
74624;SDS011;63131;52.298;8.056;2023-02-11T03:37:29;24.55;;;13.63;;
74624;SDS011;63131;52.298;8.056;2023-02-11T03:40:07;29.90;;;14.77;;
74624;SDS011;63131;52.298;8.056;2023-02-11T03:42:40;29.42;;;16.13;;
74624;SDS011;63131;52.298;8.056;2023-02-11T03:45:09;27.38;;;14.55;;
74624;SDS011;63131;52.298;8.056;2023-02-11T03:47:36;35.17;;;14.82;;
74624;SDS011;63131;52.298;8.056;2023-02-11T03:50:04;28.75;;;15.25;;
74624;SDS011;63131;52.298;8.056;2023-02-11T03:52:30;31.67;;;14.93;;
74624;SDS011;63131;52.298;8.056;2023-02-11T03:54:56;25.35;;;13.40;;
74624;SDS011;63131;52.298;8.056;2023-02-11T03:57:24;27.50;;;12.43;;
74624;SDS011;63131;52.298;8.056;2023-02-11T03:59:51;26.67;;;14.50;;
74624;SDS011;63131;52.298;8.056;2023-02-11T04:02:24;23.95;;;13.35;;
74624;SDS011;63131;52.298;8.056;2023-02-11T04:04:54;28.98;;;15.23;;
74624;SDS011;63131;52.298;8.056;2023-02-11T04:07:20;25.90;;;14.20;;
74624;SDS011;63131;52.298;8.056;2023-02-11T04:09:45;29.02;;;14.90;;
74624;SDS011;63131;52.298;8.056;2023-02-11T04:12:11;32.15;;;14.32;;
74624;SDS011;63131;52.298;8.056;2023-02-11T04:14:36;25.90;;;13.77;;
74624;SDS011;63131;52.298;8.056;2023-02-11T04:17:02;28.40;;;14.23;;
74624;SDS011;63131;52.298;8.056;2023-02-11T04:19:27;28.13;;;13.35;;
74624;SDS011;63131;52.298;8.056;2023-02-11T04:21:53;26.17;;;13.30;;
74624;SDS011;63131;52.298;8.056;2023-02-11T04:24:18;26.73;;;14.07;;
74624;SDS011;63131;52.298;8.056;2023-02-11T04:26:43;25.00;;;13.52;;
74624;SDS011;63131;52.298;8.056;2023-02-11T04:29:09;26.15;;;14.68;;
74624;SDS011;63131;52.298;8.056;2023-02-11T04:31:34;25.60;;;13.00;;
74624;SDS011;63131;52.298;8.056;2023-02-11T04:33:59;28.42;;;13.02;;
74624;SDS011;63131;52.298;8.056;2023-02-11T04:36:24;25.67;;;14.38;;
74624;SDS011;63131;52.298;8.056;2023-02-11T04:38:50;25.85;;;13.02;;
74624;SDS011;63131;52.298;8.056;2023-02-11T04:41:15;27.70;;;13.35;;
74624;SDS011;63131;52.298;8.056;2023-02-11T04:43:40;28.20;;;12.77;;
74624;SDS011;63131;52.298;8.056;2023-02-11T04:46:06;23.00;;;13.40;;
74624;SDS011;63131;52.298;8.056;2023-02-11T04:48:31;24.52;;;11.52;;
74624;SDS011;63131;52.298;8.056;2023-02-11T04:50:58;29.73;;;13.48;;
74624;SDS011;63131;52.298;8.056;2023-02-11T04:53:24;24.23;;;12.75;;
74624;SDS011;63131;52.298;8.056;2023-02-11T04:55:50;23.13;;;11.98;;
74624;SDS011;63131;52.298;8.056;2023-02-11T04:58:16;26.27;;;12.67;;
74624;SDS011;63131;52.298;8.056;2023-02-11T05:00:41;22.70;;;11.80;;
74624;SDS011;63131;52.298;8.056;2023-02-11T05:03:07;23.17;;;12.52;;
74624;SDS011;63131;52.298;8.056;2023-02-11T05:05:32;24.17;;;11.70;;
74624;SDS011;63131;52.298;8.056;2023-02-11T05:07:57;25.42;;;11.90;;
74624;SDS011;63131;52.298;8.056;2023-02-11T05:10:23;23.05;;;12.00;;
74624;SDS011;63131;52.298;8.056;2023-02-11T05:12:48;21.60;;;11.75;;
74624;SDS011;63131;52.298;8.056;2023-02-11T05:15:14;24.10;;;12.88;;
74624;SDS011;63131;52.298;8.056;2023-02-11T05:17:45;23.55;;;13.13;;
74624;SDS011;63131;52.298;8.056;2023-02-11T05:20:11;25.17;;;12.70;;
74624;SDS011;63131;52.298;8.056;2023-02-11T05:22:36;23.08;;;12.48;;
74624;SDS011;63131;52.298;8.056;2023-02-11T05:25:01;23.60;;;12.63;;
74624;SDS011;63131;52.298;8.056;2023-02-11T05:27:27;23.60;;;12.57;;
74624;SDS011;63131;52.298;8.056;2023-02-11T05:29:52;24.15;;;12.50;;
74624;SDS011;63131;52.298;8.056;2023-02-11T05:32:17;27.42;;;13.50;;
74624;SDS011;63131;52.298;8.056;2023-02-11T05:34:43;24.42;;;12.60;;
74624;SDS011;63131;52.298;8.056;2023-02-11T05:37:08;25.40;;;13.27;;
74624;SDS011;63131;52.298;8.056;2023-02-11T05:39:33;28.42;;;13.75;;
74624;SDS011;63131;52.298;8.056;2023-02-11T05:41:59;25.40;;;13.02;;
74624;SDS011;63131;52.298;8.056;2023-02-11T05:44:24;25.98;;;13.80;;
74624;SDS011;63131;52.298;8.056;2023-02-11T05:46:49;27.50;;;13.40;;
74624;SDS011;63131;52.298;8.056;2023-02-11T05:49:15;26.63;;;13.43;;
74624;SDS011;63131;52.298;8.056;2023-02-11T05:51:41;26.98;;;12.38;;
74624;SDS011;63131;52.298;8.056;2023-02-11T05:54:06;27.92;;;11.43;;
74624;SDS011;63131;52.298;8.056;2023-02-11T05:56:32;26.77;;;12.43;;
74624;SDS011;63131;52.298;8.056;2023-02-11T05:58:58;24.05;;;12.95;;
74624;SDS011;63131;52.298;8.056;2023-02-11T06:01:23;29.55;;;14.95;;
74624;SDS011;63131;52.298;8.056;2023-02-11T06:03:49;28.17;;;12.43;;
74624;SDS011;63131;52.298;8.056;2023-02-11T06:09:11;26.83;;;12.88;;
74624;SDS011;63131;52.298;8.056;2023-02-11T06:11:37;24.52;;;13.43;;
74624;SDS011;63131;52.298;8.056;2023-02-11T06:14:02;30.63;;;14.80;;
74624;SDS011;63131;52.298;8.056;2023-02-11T06:16:28;28.50;;;12.85;;
74624;SDS011;63131;52.298;8.056;2023-02-11T06:18:53;32.05;;;13.95;;
74624;SDS011;63131;52.298;8.056;2023-02-11T06:21:18;28.55;;;14.02;;
74624;SDS011;63131;52.298;8.056;2023-02-11T06:23:44;28.80;;;14.65;;
74624;SDS011;63131;52.298;8.056;2023-02-11T06:26:15;25.02;;;12.57;;
74624;SDS011;63131;52.298;8.056;2023-02-11T06:28:43;22.98;;;14.68;;
74624;SDS011;63131;52.298;8.056;2023-02-11T06:31:08;25.45;;;12.25;;
74624;SDS011;63131;52.298;8.056;2023-02-11T06:33:34;28.52;;;15.10;;
74624;SDS011;63131;52.298;8.056;2023-02-11T06:36:00;31.55;;;13.63;;
74624;SDS011;63131;52.298;8.056;2023-02-11T06:38:25;24.90;;;12.70;;
74624;SDS011;63131;52.298;8.056;2023-02-11T06:40:54;25.27;;;12.95;;
74624;SDS011;63131;52.298;8.056;2023-02-11T06:43:26;25.45;;;12.73;;
74624;SDS011;63131;52.298;8.056;2023-02-11T06:45:52;29.67;;;13.70;;
74624;SDS011;63131;52.298;8.056;2023-02-11T06:48:18;25.58;;;13.90;;
74624;SDS011;63131;52.298;8.056;2023-02-11T06:50:44;25.38;;;13.80;;
74624;SDS011;63131;52.298;8.056;2023-02-11T06:53:09;28.23;;;12.68;;
74624;SDS011;63131;52.298;8.056;2023-02-11T06:55:34;29.38;;;12.95;;
74624;SDS011;63131;52.298;8.056;2023-02-11T06:58:00;24.98;;;13.30;;
74624;SDS011;63131;52.298;8.056;2023-02-11T07:00:25;24.52;;;11.40;;
74624;SDS011;63131;52.298;8.056;2023-02-11T07:02:50;27.55;;;13.18;;
74624;SDS011;63131;52.298;8.056;2023-02-11T07:05:16;26.90;;;12.93;;
74624;SDS011;63131;52.298;8.056;2023-02-11T07:07:41;27.65;;;12.27;;
74624;SDS011;63131;52.298;8.056;2023-02-11T07:10:07;27.90;;;13.57;;
74624;SDS011;63131;52.298;8.056;2023-02-11T07:12:32;27.52;;;13.88;;
74624;SDS011;63131;52.298;8.056;2023-02-11T07:14:58;30.40;;;14.45;;
74624;SDS011;63131;52.298;8.056;2023-02-11T07:17:23;28.65;;;13.85;;
74624;SDS011;63131;52.298;8.056;2023-02-11T07:19:48;26.25;;;12.50;;
74624;SDS011;63131;52.298;8.056;2023-02-11T07:22:14;24.75;;;12.95;;
74624;SDS011;63131;52.298;8.056;2023-02-11T07:24:39;28.98;;;13.25;;
74624;SDS011;63131;52.298;8.056;2023-02-11T07:27:05;31.20;;;13.65;;
74624;SDS011;63131;52.298;8.056;2023-02-11T07:29:30;26.30;;;13.27;;
74624;SDS011;63131;52.298;8.056;2023-02-11T07:34:22;32.63;;;13.93;;
74624;SDS011;63131;52.298;8.056;2023-02-11T07:36:47;27.42;;;12.88;;
74624;SDS011;63131;52.298;8.056;2023-02-11T07:39:13;27.13;;;13.48;;
74624;SDS011;63131;52.298;8.056;2023-02-11T07:41:38;24.48;;;14.02;;
74624;SDS011;63131;52.298;8.056;2023-02-11T07:44:04;28.92;;;12.98;;
74624;SDS011;63131;52.298;8.056;2023-02-11T07:46:29;26.20;;;12.95;;
74624;SDS011;63131;52.298;8.056;2023-02-11T07:48:55;27.42;;;13.80;;
74624;SDS011;63131;52.298;8.056;2023-02-11T07:51:23;32.00;;;13.93;;
74624;SDS011;63131;52.298;8.056;2023-02-11T07:53:50;30.08;;;13.38;;
74624;SDS011;63131;52.298;8.056;2023-02-11T07:56:16;31.17;;;14.35;;
74624;SDS011;63131;52.298;8.056;2023-02-11T07:58:43;28.75;;;14.43;;
74624;SDS011;63131;52.298;8.056;2023-02-11T08:01:10;29.88;;;13.20;;
74624;SDS011;63131;52.298;8.056;2023-02-11T08:03:39;31.40;;;13.77;;
74624;SDS011;63131;52.298;8.056;2023-02-11T08:06:07;30.17;;;15.80;;
74624;SDS011;63131;52.298;8.056;2023-02-11T08:08:34;28.80;;;13.60;;
74624;SDS011;63131;52.298;8.056;2023-02-11T08:13:30;25.60;;;12.90;;
74624;SDS011;63131;52.298;8.056;2023-02-11T08:15:56;30.10;;;13.98;;
74624;SDS011;63131;52.298;8.056;2023-02-11T08:18:21;30.05;;;13.82;;
74624;SDS011;63131;52.298;8.056;2023-02-11T08:20:46;30.10;;;13.63;;
74624;SDS011;63131;52.298;8.056;2023-02-11T08:23:12;29.10;;;14.43;;
74624;SDS011;63131;52.298;8.056;2023-02-11T08:25:37;27.92;;;13.05;;
74624;SDS011;63131;52.298;8.056;2023-02-11T08:28:02;31.17;;;13.32;;
74624;SDS011;63131;52.298;8.056;2023-02-11T08:30:28;29.00;;;14.85;;
74624;SDS011;63131;52.298;8.056;2023-02-11T08:32:53;30.63;;;14.70;;
74624;SDS011;63131;52.298;8.056;2023-02-11T08:35:18;34.45;;;14.93;;
74624;SDS011;63131;52.298;8.056;2023-02-11T08:37:44;28.42;;;14.88;;
74624;SDS011;63131;52.298;8.056;2023-02-11T08:40:09;29.23;;;15.38;;
74624;SDS011;63131;52.298;8.056;2023-02-11T08:42:35;30.38;;;15.65;;
74624;SDS011;63131;52.298;8.056;2023-02-11T08:45:00;29.48;;;15.38;;
74624;SDS011;63131;52.298;8.056;2023-02-11T08:47:25;33.17;;;16.55;;
74624;SDS011;63131;52.298;8.056;2023-02-11T08:49:51;29.15;;;13.18;;
74624;SDS011;63131;52.298;8.056;2023-02-11T08:52:16;32.00;;;14.20;;
74624;SDS011;63131;52.298;8.056;2023-02-11T08:54:41;33.75;;;16.35;;
74624;SDS011;63131;52.298;8.056;2023-02-11T08:57:07;32.28;;;14.23;;
74624;SDS011;63131;52.298;8.056;2023-02-11T08:59:32;33.13;;;13.95;;
74624;SDS011;63131;52.298;8.056;2023-02-11T09:01:58;32.65;;;15.40;;
74624;SDS011;63131;52.298;8.056;2023-02-11T09:04:23;34.85;;;15.95;;
74624;SDS011;63131;52.298;8.056;2023-02-11T09:06:49;36.40;;;14.85;;
74624;SDS011;63131;52.298;8.056;2023-02-11T09:09:14;33.22;;;14.10;;
74624;SDS011;63131;52.298;8.056;2023-02-11T09:11:40;32.20;;;14.43;;
74624;SDS011;63131;52.298;8.056;2023-02-11T09:14:07;27.77;;;11.68;;
74624;SDS011;63131;52.298;8.056;2023-02-11T09:16:33;38.13;;;16.75;;
74624;SDS011;63131;52.298;8.056;2023-02-11T09:19:00;28.88;;;14.82;;
74624;SDS011;63131;52.298;8.056;2023-02-11T09:21:26;31.52;;;15.05;;
74624;SDS011;63131;52.298;8.056;2023-02-11T09:23:53;32.35;;;15.68;;
74624;SDS011;63131;52.298;8.056;2023-02-11T09:26:19;32.00;;;14.50;;
74624;SDS011;63131;52.298;8.056;2023-02-11T09:28:46;28.23;;;15.77;;
74624;SDS011;63131;52.298;8.056;2023-02-11T09:31:14;30.80;;;16.15;;
74624;SDS011;63131;52.298;8.056;2023-02-11T09:33:41;29.17;;;14.43;;
74624;SDS011;63131;52.298;8.056;2023-02-11T09:36:12;35.72;;;14.88;;
74624;SDS011;63131;52.298;8.056;2023-02-11T09:38:44;30.88;;;13.98;;
74624;SDS011;63131;52.298;8.056;2023-02-11T09:41:23;35.85;;;15.60;;
74624;SDS011;63131;52.298;8.056;2023-02-11T09:43:59;28.20;;;13.98;;
74624;SDS011;63131;52.298;8.056;2023-02-11T09:46:35;30.77;;;14.02;;
74624;SDS011;63131;52.298;8.056;2023-02-11T09:49:04;33.78;;;16.60;;
74624;SDS011;63131;52.298;8.056;2023-02-11T09:51:41;29.85;;;14.60;;
74624;SDS011;63131;52.298;8.056;2023-02-11T09:54:57;32.50;;;16.92;;
74624;SDS011;63131;52.298;8.056;2023-02-11T09:57:01;30.00;;;14.98;;
74624;SDS011;63131;52.298;8.056;2023-02-11T09:59:26;38.85;;;16.20;;
74624;SDS011;63131;52.298;8.056;2023-02-11T10:01:53;36.65;;;16.20;;
74624;SDS011;63131;52.298;8.056;2023-02-11T10:10:09;33.72;;;17.08;;
74624;SDS011;63131;52.298;8.056;2023-02-11T10:15:16;34.75;;;15.07;;
74624;SDS011;63131;52.298;8.056;2023-02-11T10:23:16;33.90;;;15.43;;
74624;SDS011;63131;52.298;8.056;2023-02-11T10:25:46;27.60;;;14.40;;
74624;SDS011;63131;52.298;8.056;2023-02-11T10:28:15;34.63;;;17.02;;
74624;SDS011;63131;52.298;8.056;2023-02-11T10:30:57;35.45;;;15.60;;
74624;SDS011;63131;52.298;8.056;2023-02-11T10:35:58;33.90;;;15.30;;
74624;SDS011;63131;52.298;8.056;2023-02-11T10:38:24;34.72;;;16.52;;
74624;SDS011;63131;52.298;8.056;2023-02-11T10:40:49;34.67;;;15.93;;
74624;SDS011;63131;52.298;8.056;2023-02-11T10:43:15;30.63;;;15.63;;
74624;SDS011;63131;52.298;8.056;2023-02-11T10:45:49;29.67;;;15.25;;
74624;SDS011;63131;52.298;8.056;2023-02-11T10:48:35;31.83;;;15.48;;
74624;SDS011;63131;52.298;8.056;2023-02-11T10:51:13;28.67;;;15.20;;
74624;SDS011;63131;52.298;8.056;2023-02-11T10:53:41;32.10;;;16.88;;
74624;SDS011;63131;52.298;8.056;2023-02-11T10:56:07;36.35;;;15.90;;
74624;SDS011;63131;52.298;8.056;2023-02-11T10:58:45;33.30;;;16.20;;
74624;SDS011;63131;52.298;8.056;2023-02-11T11:01:19;36.60;;;17.00;;
74624;SDS011;63131;52.298;8.056;2023-02-11T11:03:49;30.38;;;15.45;;
74624;SDS011;63131;52.298;8.056;2023-02-11T11:06:15;29.85;;;13.20;;
74624;SDS011;63131;52.298;8.056;2023-02-11T11:11:15;27.73;;;15.77;;
74624;SDS011;63131;52.298;8.056;2023-02-11T11:13:44;32.15;;;17.10;;
74624;SDS011;63131;52.298;8.056;2023-02-11T11:24:31;32.40;;;14.13;;
74624;SDS011;63131;52.298;8.056;2023-02-11T11:27:04;31.17;;;16.65;;
74624;SDS011;63131;52.298;8.056;2023-02-11T11:29:41;35.00;;;16.85;;
74624;SDS011;63131;52.298;8.056;2023-02-11T11:34:48;33.40;;;16.73;;
74624;SDS011;63131;52.298;8.056;2023-02-11T11:37:27;30.27;;;15.88;;
74624;SDS011;63131;52.298;8.056;2023-02-11T11:40:02;34.35;;;16.02;;
74624;SDS011;63131;52.298;8.056;2023-02-11T11:42:45;31.85;;;16.05;;
74624;SDS011;63131;52.298;8.056;2023-02-11T11:50:36;33.58;;;15.55;;
74624;SDS011;63131;52.298;8.056;2023-02-11T11:55:42;33.03;;;15.23;;
74624;SDS011;63131;52.298;8.056;2023-02-11T11:58:14;28.83;;;15.05;;
74624;SDS011;63131;52.298;8.056;2023-02-11T12:00:52;33.45;;;16.25;;
74624;SDS011;63131;52.298;8.056;2023-02-11T12:06:18;30.98;;;16.02;;
74624;SDS011;63131;52.298;8.056;2023-02-11T12:11:57;34.80;;;16.10;;
74624;SDS011;63131;52.298;8.056;2023-02-11T12:17:00;28.45;;;15.02;;
74624;SDS011;63131;52.298;8.056;2023-02-11T12:24:59;30.80;;;14.98;;
74624;SDS011;63131;52.298;8.056;2023-02-11T12:43:37;30.30;;;13.03;;
74624;SDS011;63131;52.298;8.056;2023-02-11T12:46:08;30.38;;;13.40;;
74624;SDS011;63131;52.298;8.056;2023-02-11T12:56:39;27.55;;;13.63;;
74624;SDS011;63131;52.298;8.056;2023-02-11T12:59:11;26.40;;;12.98;;
74624;SDS011;63131;52.298;8.056;2023-02-11T13:01:39;25.42;;;13.57;;
74624;SDS011;63131;52.298;8.056;2023-02-11T13:06:44;25.75;;;12.77;;
74624;SDS011;63131;52.298;8.056;2023-02-11T13:09:24;27.83;;;14.45;;
74624;SDS011;63131;52.298;8.056;2023-02-11T13:11:53;24.52;;;13.43;;
74624;SDS011;63131;52.298;8.056;2023-02-11T13:16:52;30.10;;;13.18;;
74624;SDS011;63131;52.298;8.056;2023-02-11T13:20:04;30.70;;;13.93;;
74624;SDS011;63131;52.298;8.056;2023-02-11T13:25:06;25.85;;;12.30;;
74624;SDS011;63131;52.298;8.056;2023-02-11T13:27:56;27.90;;;13.95;;
74624;SDS011;63131;52.298;8.056;2023-02-11T13:30:43;30.02;;;13.32;;
74624;SDS011;63131;52.298;8.056;2023-02-11T13:35:42;31.10;;;14.20;;
74624;SDS011;63131;52.298;8.056;2023-02-11T13:38:17;29.50;;;13.73;;
74624;SDS011;63131;52.298;8.056;2023-02-11T13:40:51;31.70;;;14.55;;
74624;SDS011;63131;52.298;8.056;2023-02-11T13:43:28;26.58;;;14.02;;
74624;SDS011;63131;52.298;8.056;2023-02-11T13:45:59;27.95;;;13.95;;
74624;SDS011;63131;52.298;8.056;2023-02-11T13:48:30;26.23;;;12.73;;
74624;SDS011;63131;52.298;8.056;2023-02-11T13:51:11;29.10;;;13.80;;
74624;SDS011;63131;52.298;8.056;2023-02-11T13:53:48;29.38;;;14.07;;
74624;SDS011;63131;52.298;8.056;2023-02-11T13:58:59;30.80;;;14.10;;
74624;SDS011;63131;52.298;8.056;2023-02-11T14:04:32;29.80;;;14.32;;
74624;SDS011;63131;52.298;8.056;2023-02-11T14:07:27;31.00;;;14.45;;
74624;SDS011;63131;52.298;8.056;2023-02-11T14:13:21;31.85;;;15.20;;
74624;SDS011;63131;52.298;8.056;2023-02-11T14:21:18;27.63;;;14.00;;
74624;SDS011;63131;52.298;8.056;2023-02-11T14:23:43;28.40;;;13.57;;
74624;SDS011;63131;52.298;8.056;2023-02-11T14:28:43;24.95;;;13.40;;
74624;SDS011;63131;52.298;8.056;2023-02-11T14:34:40;27.38;;;13.32;;
74624;SDS011;63131;52.298;8.056;2023-02-11T14:40:22;30.52;;;13.35;;
74624;SDS011;63131;52.298;8.056;2023-02-11T14:42:52;28.80;;;13.68;;
74624;SDS011;63131;52.298;8.056;2023-02-11T14:48:12;29.98;;;14.48;;
74624;SDS011;63131;52.298;8.056;2023-02-11T14:50:50;27.13;;;14.00;;
74624;SDS011;63131;52.298;8.056;2023-02-11T14:53:18;26.88;;;13.98;;
74624;SDS011;63131;52.298;8.056;2023-02-11T14:55:47;25.42;;;12.65;;
74624;SDS011;63131;52.298;8.056;2023-02-11T14:58:17;27.27;;;14.70;;
74624;SDS011;63131;52.298;8.056;2023-02-11T15:08:41;24.48;;;12.95;;
74624;SDS011;63131;52.298;8.056;2023-02-11T15:11:09;24.23;;;13.07;;
74624;SDS011;63131;52.298;8.056;2023-02-11T15:13:36;27.35;;;12.90;;
74624;SDS011;63131;52.298;8.056;2023-02-11T15:16:06;23.45;;;11.65;;
74624;SDS011;63131;52.298;8.056;2023-02-11T15:18:34;23.70;;;13.57;;
74624;SDS011;63131;52.298;8.056;2023-02-11T15:21:01;29.63;;;13.90;;
74624;SDS011;63131;52.298;8.056;2023-02-11T15:23:27;28.10;;;14.65;;
74624;SDS011;63131;52.298;8.056;2023-02-11T15:31:34;27.60;;;13.88;;
74624;SDS011;63131;52.298;8.056;2023-02-11T15:33:41;28.15;;;15.30;;
74624;SDS011;63131;52.298;8.056;2023-02-11T15:36:08;26.25;;;15.07;;
74624;SDS011;63131;52.298;8.056;2023-02-11T15:38:35;29.48;;;14.95;;
74624;SDS011;63131;52.298;8.056;2023-02-11T15:41:01;22.88;;;13.05;;
74624;SDS011;63131;52.298;8.056;2023-02-11T15:43:44;27.17;;;12.57;;
74624;SDS011;63131;52.298;8.056;2023-02-11T15:46:15;24.48;;;14.80;;
74624;SDS011;63131;52.298;8.056;2023-02-11T15:48:44;27.90;;;14.05;;
74624;SDS011;63131;52.298;8.056;2023-02-11T15:51:17;28.85;;;15.20;;
74624;SDS011;63131;52.298;8.056;2023-02-11T15:53:54;25.42;;;14.18;;
74624;SDS011;63131;52.298;8.056;2023-02-11T15:56:27;26.85;;;13.57;;
74624;SDS011;63131;52.298;8.056;2023-02-11T15:58:55;28.05;;;14.10;;
74624;SDS011;63131;52.298;8.056;2023-02-11T16:01:27;25.80;;;13.77;;
74624;SDS011;63131;52.298;8.056;2023-02-11T16:03:54;30.33;;;13.65;;
74624;SDS011;63131;52.298;8.056;2023-02-11T16:06:26;25.10;;;13.45;;
74624;SDS011;63131;52.298;8.056;2023-02-11T16:11:32;26.02;;;13.48;;
74624;SDS011;63131;52.298;8.056;2023-02-11T16:13:59;26.63;;;14.25;;
74624;SDS011;63131;52.298;8.056;2023-02-11T16:16:30;25.92;;;13.10;;
74624;SDS011;63131;52.298;8.056;2023-02-11T16:18:57;29.83;;;16.05;;
74624;SDS011;63131;52.298;8.056;2023-02-11T16:21:26;27.25;;;14.90;;
74624;SDS011;63131;52.298;8.056;2023-02-11T16:23:57;25.58;;;14.15;;
74624;SDS011;63131;52.298;8.056;2023-02-11T16:26:32;21.48;;;12.55;;
74624;SDS011;63131;52.298;8.056;2023-02-11T16:29:18;24.83;;;12.52;;
74624;SDS011;63131;52.298;8.056;2023-02-11T16:31:48;25.50;;;12.73;;
74624;SDS011;63131;52.298;8.056;2023-02-11T16:36:46;23.33;;;12.48;;
74624;SDS011;63131;52.298;8.056;2023-02-11T16:39:12;24.17;;;12.65;;
74624;SDS011;63131;52.298;8.056;2023-02-11T16:41:38;26.85;;;14.15;;
74624;SDS011;63131;52.298;8.056;2023-02-11T16:44:03;24.33;;;12.32;;
74624;SDS011;63131;52.298;8.056;2023-02-11T16:46:29;21.80;;;11.75;;
74624;SDS011;63131;52.298;8.056;2023-02-11T16:51:20;24.45;;;13.63;;
74624;SDS011;63131;52.298;8.056;2023-02-11T16:53:46;26.98;;;12.82;;
74624;SDS011;63131;52.298;8.056;2023-02-11T16:56:12;27.92;;;13.95;;
74624;SDS011;63131;52.298;8.056;2023-02-11T16:58:39;26.45;;;13.88;;
74624;SDS011;63131;52.298;8.056;2023-02-11T17:01:05;24.55;;;12.57;;
74624;SDS011;63131;52.298;8.056;2023-02-11T17:03:30;24.50;;;13.95;;
74624;SDS011;63131;52.298;8.056;2023-02-11T17:06:01;20.80;;;11.80;;
74624;SDS011;63131;52.298;8.056;2023-02-11T17:08:28;24.08;;;12.45;;
74624;SDS011;63131;52.298;8.056;2023-02-11T17:10:54;23.30;;;12.90;;
74624;SDS011;63131;52.298;8.056;2023-02-11T17:13:19;23.73;;;13.27;;
74624;SDS011;63131;52.298;8.056;2023-02-11T17:15:44;27.10;;;13.43;;
74624;SDS011;63131;52.298;8.056;2023-02-11T17:18:13;26.60;;;14.05;;
74624;SDS011;63131;52.298;8.056;2023-02-11T17:20:39;21.10;;;10.95;;
74624;SDS011;63131;52.298;8.056;2023-02-11T17:23:05;22.77;;;12.23;;
74624;SDS011;63131;52.298;8.056;2023-02-11T17:25:30;23.30;;;12.35;;
74624;SDS011;63131;52.298;8.056;2023-02-11T17:27:55;26.33;;;12.77;;
74624;SDS011;63131;52.298;8.056;2023-02-11T17:30:21;25.17;;;14.35;;
74624;SDS011;63131;52.298;8.056;2023-02-11T17:32:47;25.27;;;12.80;;
74624;SDS011;63131;52.298;8.056;2023-02-11T17:35:13;24.48;;;13.85;;
74624;SDS011;63131;52.298;8.056;2023-02-11T17:37:38;26.00;;;12.20;;
74624;SDS011;63131;52.298;8.056;2023-02-11T17:40:04;24.42;;;12.30;;
74624;SDS011;63131;52.298;8.056;2023-02-11T17:42:30;22.88;;;11.57;;